Time;durP1;ratioP1;P1;durP2;ratioP2;P2;SDS_P1;SDS_P2;PMS_P1;PMS_P2;Temp;Humidity;BMP_temperature;BMP_pressure;BME280_temperature;BME280_humidity;BME280_pressure;Samples;Min_cycle;Max_cycle;Signal;HPM_P1;HPM_P2
2022/01/26 00:05:55;;;;;;;19.30;11.63;;;-0.60;99.90;-1.20;97820.00;;;;5078943;28;20488;-81
2022/01/26 00:08:43;;;;;;;13.00;9.30;;;-0.60;99.90;-1.00;97823.00;;;;5090170;28;20461;-81
2022/01/26 00:11:32;;;;;;;17.33;11.23;;;-0.60;99.90;-0.90;97822.00;;;;5092487;28;20429;-81
2022/01/26 00:14:23;;;;;;;15.80;11.17;;;-0.40;99.90;-1.00;97814.00;;;;5093614;28;20449;-81
2022/01/26 00:17:12;;;;;;;18.63;12.40;;;-0.50;99.90;-1.00;97819.00;;;;5094042;28;20429;-81
2022/01/26 00:20:10;;;;;;;13.53;9.40;;;-0.50;99.90;-1.10;97819.00;;;;5094357;28;20421;-81
2022/01/26 00:23:09;;;;;;;16.33;10.47;;;-0.50;99.90;-1.10;97812.00;;;;5094965;28;20429;-81
2022/01/26 00:26:10;;;;;;;18.57;11.47;;;-0.40;99.90;-1.00;97830.00;;;;5079660;28;20437;-81
2022/01/26 00:29:11;;;;;;;17.97;10.83;;;-0.30;99.90;-0.80;97823.00;;;;5094560;28;20535;-81
2022/01/26 00:38:37;;;;;;;16.27;10.50;;;-0.40;99.90;-0.90;97817.00;;;;5094600;28;20428;-81
2022/01/26 00:41:34;;;;;;;15.50;10.17;;;-0.40;99.90;-1.00;97806.00;;;;5093315;28;20430;-80
2022/01/26 00:44:30;;;;;;;14.73;10.07;;;-0.40;99.90;-1.00;97814.00;;;;5094745;28;20962;-81
2022/01/26 00:47:20;;;;;;;16.07;10.87;;;-0.40;99.90;-1.00;97806.00;;;;5093823;28;20452;-81
2022/01/26 00:50:11;;;;;;;15.13;9.60;;;-0.50;99.90;-0.90;97804.00;;;;5094784;27;20444;-80
2022/01/26 00:53:01;;;;;;;17.47;11.30;;;-0.50;99.90;-0.80;97819.00;;;;5093666;28;20424;-81
2022/01/26 00:55:50;;;;;;;13.73;10.13;;;-0.40;99.90;-0.80;97800.00;;;;5093564;28;20418;-81
2022/01/26 00:58:39;;;;;;;14.53;9.40;;;-0.40;99.90;-0.80;97810.00;;;;5093611;28;20437;-81
2022/01/26 01:01:28;;;;;;;15.90;10.27;;;-0.40;99.90;-0.70;97824.00;;;;5092889;28;20422;-81
2022/01/26 01:04:18;;;;;;;17.53;10.97;;;-0.30;99.90;-0.60;97808.00;;;;5090218;28;21104;-81
2022/01/26 01:07:11;;;;;;;17.10;10.73;;;-0.30;99.90;-0.50;97806.00;;;;5084376;28;20440;-81
2022/01/26 01:10:00;;;;;;;18.40;11.13;;;-0.20;99.90;-0.50;97818.00;;;;5092946;28;20429;-80
2022/01/26 01:12:53;;;;;;;16.83;10.73;;;-0.30;99.90;-0.50;97812.00;;;;5093252;28;20430;-80
2022/01/26 01:15:46;;;;;;;18.70;12.10;;;-0.30;99.90;-0.50;97810.00;;;;5092079;28;20422;-80
2022/01/26 01:18:43;;;;;;;18.17;12.40;;;-0.20;99.90;-0.40;97803.00;;;;5093218;28;20535;-81
2022/01/26 01:25:14;;;;;;;15.17;10.77;;;-0.20;99.90;-0.50;97809.00;;;;5093732;28;20469;-80
2022/01/26 01:28:18;;;;;;;13.67;9.97;;;-0.10;99.90;-0.50;97798.00;;;;5093117;28;20461;-80
2022/01/26 01:31:13;;;;;;;14.30;9.67;;;-0.20;99.90;-0.40;97812.00;;;;5093501;28;20434;-81
2022/01/26 01:34:02;;;;;;;15.73;11.50;;;-0.10;99.90;-0.40;97801.00;;;;5094841;28;20450;-80
2022/01/26 01:36:53;;;;;;;16.70;9.67;;;-0.10;99.90;-0.40;97800.00;;;;5093303;28;20429;-81
2022/01/26 01:39:42;;;;;;;15.63;10.33;;;-0.10;99.90;-0.40;97799.00;;;;5093254;28;20448;-80
2022/01/26 01:42:31;;;;;;;16.13;10.33;;;0.40;99.90;-0.50;97793.00;;;;5092092;28;20512;-81
2022/01/26 01:45:32;;;;;;;20.13;12.20;;;-0.10;99.90;-0.40;97798.00;;;;5091632;28;20453;-80
2022/01/26 01:48:30;;;;;;;19.70;11.83;;;-0.10;99.90;-0.50;97796.00;;;;5093087;28;20476;-80
2022/01/26 01:51:20;;;;;;;18.77;11.37;;;-0.10;99.90;-0.40;97801.00;;;;5091918;28;20422;-81
2022/01/26 01:54:14;;;;;;;16.67;11.27;;;-0.10;99.90;-0.30;97797.00;;;;5092666;28;20460;-81
2022/01/26 01:57:04;;;;;;;18.80;10.90;;;0.00;99.90;-0.30;97785.00;;;;5093048;28;20433;-81
2022/01/26 01:59:53;;;;;;;17.77;13.00;;;-0.10;99.90;-0.30;97787.00;;;;5090729;28;20430;-80
2022/01/26 02:02:41;;;;;;;16.37;11.10;;;0.00;99.90;-0.30;97786.00;;;;5089768;28;20426;-81
2022/01/26 02:05:31;;;;;;;17.70;11.97;;;0.00;99.90;-0.30;97784.00;;;;5080837;28;20431;-81
2022/01/26 02:08:20;;;;;;;16.47;11.83;;;0.20;99.90;-0.30;97779.00;;;;5079857;28;20457;-80
2022/01/26 02:11:12;;;;;;;19.07;11.70;;;0.00;99.90;-0.30;97797.00;;;;5090795;28;20426;-81
2022/01/26 02:14:04;;;;;;;17.33;11.83;;;0.00;99.90;-0.40;97791.00;;;;5091203;28;20494;-80
2022/01/26 02:17:04;;;;;;;16.83;10.83;;;0.00;99.90;-0.40;97789.00;;;;5091323;28;20425;-80
2022/01/26 02:20:29;;;;;;;19.67;11.73;;;0.00;99.90;-0.30;97796.00;;;;5079709;28;21119;-80
2022/01/26 02:51:46;;;;;;;16.80;12.00;;;0.30;99.90;-0.30;97787.00;;;;5090626;28;20430;-81
2022/01/26 02:54:53;;;;;;;14.97;11.03;;;0.10;99.90;-0.30;97794.00;;;;5090279;28;20445;-80
2022/01/26 02:58:01;;;;;;;15.03;10.30;;;0.10;99.90;-0.20;97793.00;;;;5082504;28;20433;-80
2022/01/26 03:01:01;;;;;;;15.90;11.10;;;0.10;99.90;-0.40;97794.00;;;;5090255;28;20437;-80
2022/01/26 03:03:58;;;;;;;21.80;14.30;;;0.10;99.90;-0.40;97787.00;;;;5085669;28;20856;-81
2022/01/26 03:06:54;;;;;;;18.30;11.70;;;0.10;99.90;-0.50;97798.00;;;;5083262;28;20858;-81
2022/01/26 03:09:48;;;;;;;17.70;11.73;;;0.10;99.90;-0.40;97798.00;;;;5088752;28;20470;-80
2022/01/26 03:12:45;;;;;;;15.03;10.87;;;0.10;99.90;-0.40;97792.00;;;;5090405;28;21095;-80
2022/01/26 03:15:38;;;;;;;19.37;13.17;;;0.00;99.90;-0.40;97784.00;;;;5091348;28;20799;-80
2022/01/26 03:18:52;;;;;;;19.80;12.30;;;0.50;99.90;-0.40;97796.00;;;;5091494;28;20438;-80
2022/01/26 03:21:50;;;;;;;17.70;11.50;;;0.00;99.90;-0.60;97796.00;;;;5081749;28;20441;-81
2022/01/26 03:34:02;;;;;;;17.63;11.17;;;0.00;99.90;-0.50;97776.00;;;;5092276;28;20457;-81
2022/01/26 03:36:55;;;;;;;21.53;12.97;;;0.00;99.90;-0.30;97774.00;;;;5090560;28;20472;-81
2022/01/26 03:39:44;;;;;;;16.80;10.97;;;0.10;99.90;-0.40;97780.00;;;;5090041;28;20426;-81
2022/01/26 03:42:33;;;;;;;15.90;11.90;;;0.10;99.90;-0.20;97759.00;;;;5090726;28;20436;-81
2022/01/26 03:45:25;;;;;;;20.30;12.33;;;0.10;99.90;-0.20;97766.00;;;;5094406;28;20453;-81
2022/01/26 03:48:14;;;;;;;20.67;11.90;;;0.00;99.90;-0.20;97772.00;;;;5096066;28;20440;-81
2022/01/26 03:51:03;;;;;;;18.00;11.93;;;0.10;99.90;-0.30;97761.00;;;;5093622;28;20426;-81
2022/01/26 03:53:52;;;;;;;19.70;11.67;;;0.10;99.90;-0.40;97756.00;;;;5096492;28;20449;-81
2022/01/26 03:56:41;;;;;;;17.40;11.87;;;0.10;99.90;-0.50;97765.00;;;;5093796;28;20429;-81
2022/01/26 03:59:30;;;;;;;17.20;12.10;;;0.00;99.90;-0.30;97762.00;;;;5095499;28;20437;-81
2022/01/26 04:02:20;;;;;;;20.87;13.13;;;0.10;99.90;-0.20;97773.00;;;;5094976;28;20950;-81
2022/01/26 04:05:11;;;;;;;15.50;11.47;;;0.20;99.90;-0.20;97761.00;;;;5079071;28;20449;-81
2022/01/26 04:08:06;;;;;;;16.80;11.10;;;0.10;99.90;-0.10;97770.00;;;;5093821;28;20433;-81
2022/01/26 04:11:07;;;;;;;18.30;13.10;;;0.10;99.90;-0.10;97769.00;;;;5094987;28;20473;-81
2022/01/26 04:13:57;;;;;;;20.20;12.33;;;0.10;99.90;-0.10;97762.00;;;;5096964;28;20856;-81
2022/01/26 04:16:46;;;;;;;17.63;12.77;;;0.20;99.90;-0.10;97773.00;;;;5094971;28;20428;-81
2022/01/26 04:19:39;;;;;;;19.93;12.60;;;0.10;99.90;-0.10;97767.00;;;;5096578;28;20439;-81
2022/01/26 04:22:34;;;;;;;17.47;12.90;;;0.30;99.90;-0.10;97766.00;;;;5096547;28;20820;-81
2022/01/26 04:25:26;;;;;;;19.47;13.03;;;0.20;99.90;0.00;97761.00;;;;5095123;28;20464;-81
2022/01/26 04:28:19;;;;;;;14.60;10.77;;;0.30;99.90;-0.10;97765.00;;;;5095050;28;20440;-81
2022/01/26 04:31:09;;;;;;;18.03;12.27;;;0.20;99.90;-0.10;97755.00;;;;5094379;28;20468;-81
2022/01/26 04:33:58;;;;;;;23.23;12.60;;;0.20;99.90;0.00;97759.00;;;;5095621;28;20450;-81
2022/01/26 04:36:53;;;;;;;15.33;12.00;;;0.30;99.90;0.00;97760.00;;;;5094855;28;20821;-81
2022/01/26 04:39:47;;;;;;;20.10;12.93;;;0.30;99.90;0.00;97761.00;;;;5085912;28;20425;-81
2022/01/26 04:42:45;;;;;;;20.37;13.80;;;0.30;99.90;-0.20;97752.00;;;;5084933;28;20433;-81
2022/01/26 04:45:33;;;;;;;17.10;11.13;;;0.30;99.90;-0.20;97739.00;;;;5108058;28;20948;-81
2022/01/26 04:48:25;;;;;;;17.07;11.90;;;0.20;99.90;-0.20;97743.00;;;;5095862;28;20437;-81
2022/01/26 04:51:14;;;;;;;17.67;11.77;;;0.20;99.90;-0.10;97743.00;;;;5095759;28;20469;-81
2022/01/26 04:54:05;;;;;;;16.63;11.37;;;0.30;99.90;-0.10;97745.00;;;;5096111;28;20449;-81
2022/01/26 04:56:54;;;;;;;21.83;13.43;;;0.20;99.90;-0.20;97738.00;;;;5096477;27;20425;-81
2022/01/26 04:59:42;;;;;;;16.00;11.10;;;0.20;99.90;-0.10;97730.00;;;;5097594;28;20430;-81
2022/01/26 05:02:32;;;;;;;20.40;12.97;;;0.20;99.90;-0.10;97745.00;;;;5098614;28;20438;-81
2022/01/26 05:05:21;;;;;;;15.63;10.97;;;0.20;99.90;-0.10;97741.00;;;;5094092;28;20491;-81
2022/01/26 05:08:09;;;;;;;17.17;11.43;;;0.20;99.90;-0.10;97734.00;;;;5096351;28;20426;-81
2022/01/26 05:11:01;;;;;;;23.57;14.03;;;0.30;99.90;-0.10;97741.00;;;;5097369;28;20476;-81
2022/01/26 05:13:59;;;;;;;16.70;12.40;;;0.30;99.90;-0.10;97748.00;;;;5098987;28;20450;-81
2022/01/26 05:16:47;;;;;;;23.30;12.80;;;0.20;99.90;-0.10;97734.00;;;;5096631;28;20421;-84
2022/01/26 05:19:36;;;;;;;16.80;11.83;;;0.20;99.90;-0.10;97735.00;;;;5097445;28;20434;-84
2022/01/26 05:22:25;;;;;;;17.30;12.57;;;0.40;99.90;0.00;97734.00;;;;5094953;28;20939;-84
2022/01/26 05:25:15;;;;;;;21.03;12.80;;;0.20;99.90;0.00;97733.00;;;;5093664;28;20449;-81
2022/01/26 05:28:06;;;;;;;22.07;13.37;;;0.20;99.90;-0.10;97744.00;;;;5094979;28;20915;-81
2022/01/26 05:30:55;;;;;;;19.53;13.17;;;0.20;99.90;-0.10;97741.00;;;;5094608;28;20478;-81
2022/01/26 05:33:44;;;;;;;27.63;13.90;;;0.30;99.90;0.00;97749.00;;;;5094004;28;20785;-81
2022/01/26 05:36:33;;;;;;;20.87;13.30;;;0.30;99.90;0.00;97740.00;;;;5094036;28;20444;-81
2022/01/26 05:39:21;;;;;;;19.87;13.37;;;0.50;99.90;0.00;97739.00;;;;5086715;28;20418;-81
2022/01/26 05:42:10;;;;;;;17.73;12.37;;;0.30;99.90;-0.10;97749.00;;;;5093049;28;20941;-81
2022/01/26 05:45:04;;;;;;;20.03;13.30;;;0.30;99.90;-0.10;97752.00;;;;5095621;28;20445;-80
2022/01/26 05:47:53;;;;;;;17.80;13.20;;;0.30;99.90;0.00;97748.00;;;;5098511;28;20433;-79
2022/01/26 05:50:50;;;;;;;19.07;12.53;;;0.30;99.90;0.00;97750.00;;;;5096415;28;20837;-79
2022/01/26 05:53:41;;;;;;;20.20;12.97;;;0.30;99.90;0.00;97747.00;;;;5096691;28;20456;-80
2022/01/26 05:56:30;;;;;;;22.63;13.77;;;0.40;99.90;0.00;97746.00;;;;5097483;28;20981;-79
2022/01/26 05:59:20;;;;;;;21.33;14.80;;;0.30;99.90;0.00;97753.00;;;;5097022;28;20859;-79
2022/01/26 06:02:11;;;;;;;26.37;16.33;;;0.30;99.90;0.00;97756.00;;;;5097574;28;20434;-80
2022/01/26 06:05:01;;;;;;;21.53;14.23;;;0.40;99.90;0.00;97743.00;;;;5090650;28;20464;-80
2022/01/26 06:07:50;;;;;;;22.03;13.47;;;0.40;99.90;0.10;97752.00;;;;5096527;28;20495;-79
2022/01/26 06:10:38;;;;;;;21.00;13.93;;;0.40;99.90;0.10;97758.00;;;;5097016;28;20480;-80
2022/01/26 06:13:27;;;;;;;25.17;16.00;;;0.30;99.90;0.10;97748.00;;;;5098692;28;20460;-79
2022/01/26 06:16:16;;;;;;;21.50;15.07;;;0.30;99.90;0.10;97751.00;;;;5098658;27;20426;-79
2022/01/26 06:19:06;;;;;;;25.60;16.60;;;0.40;99.90;0.00;97751.00;;;;5097475;28;20441;-79
2022/01/26 06:21:55;;;;;;;24.63;16.70;;;0.40;99.90;0.10;97749.00;;;;5097029;28;20437;-79
2022/01/26 06:24:45;;;;;;;23.30;16.40;;;0.30;99.90;0.00;97741.00;;;;5098382;28;20456;-80
2022/01/26 06:27:34;;;;;;;26.53;17.13;;;0.40;99.90;0.10;97745.00;;;;5101364;28;20949;-80
2022/01/26 06:30:24;;;;;;;25.90;17.13;;;0.30;99.90;0.20;97739.00;;;;5099958;28;20462;-79
2022/01/26 06:33:14;;;;;;;27.97;18.93;;;1.00;99.90;0.20;97752.00;;;;5100352;28;20440;-80
2022/01/26 06:36:05;;;;;;;19.27;15.37;;;0.60;99.90;0.30;97754.00;;;;5096869;28;20438;-80
2022/01/26 06:38:54;;;;;;;22.73;16.27;;;0.40;99.90;0.20;97756.00;;;;5089257;28;20425;-79
2022/01/26 06:41:48;;;;;;;23.87;17.40;;;0.50;99.90;0.20;97747.00;;;;5095771;28;20433;-80
2022/01/26 06:44:47;;;;;;;30.40;16.80;;;0.50;99.90;0.30;97758.00;;;;5096980;28;20441;-80
2022/01/26 06:47:51;;;;;;;25.17;17.17;;;0.60;99.90;0.20;97757.00;;;;5098745;28;20430;-80
2022/01/26 06:50:40;;;;;;;29.90;16.30;;;1.60;99.90;0.20;97759.00;;;;5096254;28;20461;-79
2022/01/26 06:53:30;;;;;;;24.93;16.57;;;0.50;99.90;0.20;97768.00;;;;5095401;28;20449;-79
2022/01/26 06:56:19;;;;;;;24.83;16.60;;;0.60;99.90;0.20;97770.00;;;;5094978;28;20420;-80
2022/01/26 06:59:09;;;;;;;23.70;14.83;;;0.50;99.90;0.20;97766.00;;;;5095214;28;20460;-80
2022/01/26 07:01:57;;;;;;;31.37;18.37;;;0.50;99.90;0.20;97766.00;;;;5095037;28;20428;-80
2022/01/26 07:04:46;;;;;;;26.13;17.73;;;0.50;99.90;0.20;97769.00;;;;5086234;28;20468;-79
2022/01/26 07:07:35;;;;;;;30.70;17.10;;;0.60;99.90;0.30;97768.00;;;;5091941;28;20942;-80
2022/01/26 07:10:26;;;;;;;27.23;16.13;;;0.50;99.90;0.30;97766.00;;;;5094054;28;20476;-80
2022/01/26 07:13:14;;;;;;;22.67;16.50;;;0.50;99.90;0.20;97769.00;;;;5095036;28;20434;-80
2022/01/26 07:22:31;;;;;;;24.83;17.63;;;0.50;99.90;0.30;97780.00;;;;5094566;28;21017;-80
2022/01/26 07:25:20;;;;;;;25.67;16.77;;;0.60;99.90;0.30;97774.00;;;;5095083;28;20952;-79
2022/01/26 07:28:11;;;;;;;27.77;18.70;;;0.60;99.90;0.30;97779.00;;;;5088412;28;20468;-79
2022/01/26 07:31:00;;;;;;;30.27;18.50;;;0.60;99.90;0.10;97770.00;;;;5090688;28;20473;-79
2022/01/26 07:33:53;;;;;;;30.37;19.23;;;0.60;99.90;0.10;97778.00;;;;5096057;28;20461;-80
2022/01/26 07:36:44;;;;;;;31.80;18.70;;;0.60;99.90;0.20;97775.00;;;;5092567;28;20438;-80
2022/01/26 07:39:42;;;;;;;26.67;17.83;;;0.60;99.90;0.40;97780.00;;;;5080057;28;20942;-80
2022/01/26 07:42:32;;;;;;;29.03;19.03;;;0.60;99.90;0.40;97778.00;;;;5093133;28;20771;-80
2022/01/26 07:45:23;;;;;;;26.57;18.07;;;0.60;99.90;0.40;97775.00;;;;5090953;28;20450;-80
2022/01/26 07:48:12;;;;;;;28.23;18.57;;;0.60;99.90;0.40;97769.00;;;;5093489;28;20433;-80
2022/01/26 07:51:02;;;;;;;33.03;21.03;;;0.70;99.90;0.50;97775.00;;;;5092457;28;20830;-79
2022/01/26 07:53:51;;;;;;;30.30;21.03;;;0.70;99.90;0.50;97794.00;;;;5094454;28;20449;-80
2022/01/26 07:56:42;;;;;;;32.77;18.27;;;0.70;99.90;0.60;97787.00;;;;5093800;28;20882;-80
2022/01/26 07:59:31;;;;;;;32.37;18.23;;;0.70;99.90;0.50;97783.00;;;;5091927;28;20426;-79
2022/01/26 08:02:21;;;;;;;28.63;17.53;;;0.80;99.90;0.60;97794.00;;;;5094527;28;20426;-80
2022/01/26 08:05:11;;;;;;;31.30;19.67;;;0.80;99.90;0.60;97790.00;;;;5092888;28;20441;-80
2022/01/26 08:08:00;;;;;;;31.73;19.33;;;0.80;99.90;0.70;97790.00;;;;5094678;28;20795;-80
2022/01/26 08:10:50;;;;;;;30.53;19.80;;;0.80;99.90;0.70;97791.00;;;;5091766;28;20461;-79
2022/01/26 08:13:39;;;;;;;23.33;16.63;;;1.00;99.90;0.70;97781.00;;;;5092057;28;20441;-80
2022/01/26 08:16:28;;;;;;;22.87;16.97;;;0.90;99.90;0.70;97792.00;;;;5091092;28;20432;-80
2022/01/26 08:19:18;;;;;;;22.23;16.17;;;0.90;99.90;0.80;97796.00;;;;5093720;28;20433;-80
2022/01/26 08:22:07;;;;;;;27.70;15.93;;;0.90;99.90;0.80;97786.00;;;;5091597;28;20417;-80
2022/01/26 08:24:56;;;;;;;25.40;16.60;;;1.00;99.90;0.90;97787.00;;;;5091618;28;20430;-79
2022/01/26 08:27:53;;;;;;;25.83;17.00;;;1.00;99.90;0.90;97789.00;;;;5091399;28;20443;-80
2022/01/26 08:30:41;;;;;;;25.90;17.33;;;1.00;99.90;0.90;97791.00;;;;5090810;28;20937;-80
2022/01/26 08:33:30;;;;;;;24.33;17.07;;;1.10;99.90;0.60;97782.00;;;;5096273;28;20446;-80
2022/01/26 08:36:20;;;;;;;32.60;19.53;;;1.10;99.90;0.70;97789.00;;;;5093937;28;20417;-80
2022/01/26 08:39:10;;;;;;;26.17;17.30;;;1.00;99.90;0.80;97788.00;;;;5091817;28;20445;-80
2022/01/26 08:41:59;;;;;;;26.43;17.07;;;1.00;99.90;0.90;97798.00;;;;5090558;28;20433;-79
2022/01/26 08:44:48;;;;;;;26.77;17.57;;;1.00;99.90;0.90;97793.00;;;;5092269;28;20807;-80
2022/01/26 08:47:38;;;;;;;25.60;16.70;;;1.00;99.90;1.00;97793.00;;;;5091633;28;20426;-81
2022/01/26 08:50:27;;;;;;;24.67;15.87;;;1.10;99.90;0.80;97794.00;;;;5092293;28;20492;-81
2022/01/26 08:53:17;;;;;;;24.50;16.70;;;1.10;99.90;1.00;97804.00;;;;5094601;28;20437;-81
2022/01/26 08:56:06;;;;;;;19.67;14.53;;;1.20;99.90;0.90;97795.00;;;;5092850;28;20938;-81
2022/01/26 08:58:55;;;;;;;24.13;15.17;;;1.20;99.90;0.80;97777.00;;;;5092656;28;20427;-81
2022/01/26 09:01:44;;;;;;;19.67;14.97;;;1.20;99.90;0.90;97800.00;;;;5092898;28;20429;-81
2022/01/26 09:04:33;;;;;;;23.90;14.77;;;1.20;99.90;0.70;97785.00;;;;5093264;28;20834;-81
2022/01/26 09:07:22;;;;;;;19.13;13.70;;;1.20;99.90;0.90;97785.00;;;;5093924;28;20438;-84
2022/01/26 09:10:13;;;;;;;23.33;13.90;;;1.20;99.90;0.80;97793.00;;;;5091761;28;20444;-85
2022/01/26 09:13:02;;;;;;;20.80;12.00;;;1.20;99.90;0.50;97790.00;;;;5091329;28;20469;-83
2022/01/26 09:15:52;;;;;;;15.87;11.27;;;1.20;99.90;0.80;97788.00;;;;5090604;28;20433;-83
2022/01/26 09:18:49;;;;;;;19.17;11.87;;;1.10;99.90;1.10;97788.00;;;;5092775;28;20479;-83
2022/01/26 09:21:39;;;;;;;18.63;12.10;;;1.20;99.90;0.80;97780.00;;;;5089757;28;20426;-81
2022/01/26 09:24:29;;;;;;;17.13;12.10;;;1.20;99.90;0.80;97777.00;;;;5092068;28;20438;-81
2022/01/26 09:27:20;;;;;;;21.07;12.07;;;1.20;99.90;1.00;97792.00;;;;5091512;28;20425;-81
2022/01/26 09:30:10;;;;;;;19.30;12.77;;;1.30;99.90;0.80;97798.00;;;;5085153;28;20434;-81
2022/01/26 09:32:59;;;;;;;18.70;12.33;;;1.30;99.90;0.90;97791.00;;;;5091612;28;20465;-81
2022/01/26 09:35:48;;;;;;;19.63;13.67;;;1.80;99.90;1.00;97791.00;;;;5090548;28;20436;-81
2022/01/26 09:38:39;;;;;;;19.63;14.33;;;1.30;99.90;1.10;97787.00;;;;5090884;28;20432;-81
2022/01/26 09:41:27;;;;;;;19.00;13.23;;;1.30;99.90;0.90;97785.00;;;;5089933;28;20429;-81
2022/01/26 09:44:19;;;;;;;19.93;14.47;;;1.40;99.90;0.90;97786.00;;;;5092380;28;20453;-81
2022/01/26 09:47:09;;;;;;;19.50;12.87;;;1.40;99.90;1.10;97790.00;;;;5090758;28;20977;-81
2022/01/26 09:49:58;;;;;;;20.00;13.60;;;1.40;99.90;1.20;97788.00;;;;5089292;28;20437;-81
2022/01/26 09:52:48;;;;;;;24.97;13.80;;;1.40;99.90;1.50;97801.00;;;;5091579;28;20457;-81
2022/01/26 09:55:37;;;;;;;18.23;12.53;;;1.50;99.90;1.70;97797.00;;;;5091215;28;20805;-82
2022/01/26 09:58:27;;;;;;;21.50;14.20;;;1.60;99.90;1.70;97793.00;;;;5090424;28;20787;-81
2022/01/26 10:01:18;;;;;;;20.13;13.33;;;1.70;99.90;1.80;97804.00;;;;5089779;28;20444;-81
2022/01/26 10:04:07;;;;;;;18.77;14.40;;;1.80;99.90;1.90;97795.00;;;;5082300;28;20970;-81
2022/01/26 10:07:08;;;;;;;19.23;13.17;;;1.90;99.90;1.80;97795.00;;;;5092155;27;20802;-81
2022/01/26 10:10:07;;;;;;;18.73;12.93;;;1.90;99.90;2.10;97786.00;;;;5090676;28;20425;-81
2022/01/26 10:16:21;;;;;;;17.00;11.90;;;2.00;99.90;2.20;97792.00;;;;5092431;28;20448;-81
2022/01/26 10:19:12;;;;;;;19.13;12.63;;;2.10;99.90;2.20;97794.00;;;;5092497;28;20433;-81
2022/01/26 10:22:01;;;;;;;17.93;13.30;;;2.20;99.90;2.20;97784.00;;;;5092355;28;20422;-81
2022/01/26 10:24:49;;;;;;;33.07;12.57;;;2.70;99.90;2.30;97785.00;;;;5092328;28;20442;-82
2022/01/26 10:27:44;;;;;;;15.83;12.70;;;2.30;99.90;1.80;97772.00;;;;5093078;28;20433;-81
2022/01/26 10:30:34;;;;;;;21.20;13.63;;;2.30;99.90;1.80;97766.00;;;;5086334;28;20813;-82
2022/01/26 10:33:23;;;;;;;20.33;12.43;;;2.20;99.90;2.10;97777.00;;;;5093310;28;20469;-81
2022/01/26 10:36:13;;;;;;;18.47;12.30;;;2.20;99.90;2.10;97771.00;;;;5082378;28;20913;-81
2022/01/26 10:39:06;;;;;;;17.07;11.80;;;2.20;99.90;2.20;97769.00;;;;5083152;28;20434;-81
2022/01/26 10:42:00;;;;;;;22.30;12.73;;;2.20;99.90;2.20;97765.00;;;;5090129;28;20804;-81
2022/01/26 10:44:59;;;;;;;20.63;14.77;;;2.30;99.90;2.30;97762.00;;;;5089674;28;20810;-81
2022/01/26 10:47:48;;;;;;;29.83;19.57;;;2.30;99.90;2.50;97761.00;;;;5092165;28;20446;-81
2022/01/26 10:50:58;;;;;;;37.43;20.37;;;2.40;99.90;2.70;97760.00;;;;5091056;28;20422;-81
2022/01/26 10:53:58;;;;;;;16.50;12.73;;;2.50;99.90;2.70;97762.00;;;;5079557;28;20469;-81
2022/01/26 10:56:46;;;;;;;18.80;12.17;;;2.60;99.90;2.70;97754.00;;;;5092767;28;20444;-81
2022/01/26 10:59:38;;;;;;;16.83;12.37;;;2.60;99.90;2.70;97747.00;;;;5093194;28;20429;-81
2022/01/26 11:02:30;;;;;;;48.33;15.63;;;2.70;99.90;2.80;97757.00;;;;5081486;28;20498;-81
2022/01/26 11:05:19;;;;;;;19.33;12.10;;;2.70;99.90;2.90;97747.00;;;;5090567;28;20978;-82
2022/01/26 11:08:10;;;;;;;31.57;17.63;;;2.70;99.90;3.00;97759.00;;;;5092396;28;20433;-81
2022/01/26 11:11:00;;;;;;;58.27;27.20;;;2.80;99.90;2.90;97753.00;;;;5085930;28;20446;-82
2022/01/26 11:13:51;;;;;;;38.27;20.57;;;2.80;99.90;3.00;97742.00;;;;5088655;28;20500;-81
2022/01/26 11:16:53;;;;;;;59.20;18.20;;;2.90;99.90;2.90;97733.00;;;;5085358;28;20981;-81
2022/01/26 11:19:44;;;;;;;29.03;15.13;;;2.90;99.90;3.00;97736.00;;;;5092281;28;20817;-81
2022/01/26 11:22:33;;;;;;;29.53;13.67;;;2.90;99.90;2.90;97731.00;;;;5093127;28;20443;-81
2022/01/26 11:25:24;;;;;;;22.67;13.10;;;2.90;99.90;3.10;97730.00;;;;5091711;28;20446;-81
2022/01/26 11:28:21;;;;;;;19.93;12.87;;;3.00;99.90;3.10;97728.00;;;;5081961;28;20440;-81
2022/01/26 11:31:17;;;;;;;29.30;13.47;;;3.00;99.90;3.10;97723.00;;;;5076157;28;20438;-81
2022/01/26 11:34:13;;;;;;;28.77;17.33;;;3.10;99.90;3.20;97725.00;;;;5090438;28;20484;-81
2022/01/26 11:37:05;;;;;;;19.33;12.30;;;3.10;99.90;2.60;97722.00;;;;5091945;28;20436;-81
2022/01/26 11:46:12;;;;;;;19.77;13.17;;;3.00;99.90;3.20;97707.00;;;;5091505;28;20429;-81
2022/01/26 11:49:06;;;;;;;24.50;13.73;;;3.00;99.90;3.30;97706.00;;;;5088908;28;20432;-81
2022/01/26 11:51:57;;;;;;;25.87;14.87;;;3.10;99.90;3.30;97708.00;;;;5090932;28;20436;-81
2022/01/26 11:54:52;;;;;;;24.07;14.13;;;3.20;99.90;3.30;97701.00;;;;5092017;28;20230;-81
2022/01/26 11:57:45;;;;;;;34.63;14.57;;;3.20;99.90;3.40;97706.00;;;;5090316;28;20428;-81
2022/01/26 12:00:42;;;;;;;26.87;15.60;;;3.30;99.90;3.20;97689.00;;;;5079267;28;20443;-81
2022/01/26 12:03:35;;;;;;;22.37;13.43;;;3.20;99.90;3.40;97699.00;;;;5091833;28;20227;-81
2022/01/26 12:06:28;;;;;;;50.57;16.77;;;3.30;99.90;3.40;97686.00;;;;5095580;28;20199;-81
2022/01/26 12:09:19;;;;;;;25.23;14.33;;;3.30;99.90;3.30;97704.00;;;;5097964;28;20221;-81
2022/01/26 12:12:12;;;;;;;20.47;14.10;;;3.30;99.90;3.30;97675.00;;;;5088178;28;20422;-81
2022/01/26 12:15:05;;;;;;;24.70;13.80;;;3.30;99.90;3.40;97688.00;;;;5088765;28;20437;-82
2022/01/26 12:18:02;;;;;;;18.80;13.33;;;3.30;99.90;3.30;97682.00;;;;5091351;28;20200;-81
2022/01/26 12:34:05;;;;;;;19.80;13.83;;;3.40;99.90;3.50;97668.00;;;;5093083;28;20235;-82
2022/01/26 12:37:05;;;;;;;26.23;14.10;;;3.50;99.90;3.60;97666.00;;;;5094027;28;20199;-81
2022/01/26 12:43:06;;;;;;;26.10;14.87;;;3.50;99.90;3.50;97654.00;;;;5096051;28;20958;-82
2022/01/26 12:46:15;;;;;;;20.63;14.10;;;3.50;99.90;3.60;97660.00;;;;5091174;28;20285;-82
2022/01/26 12:49:08;;;;;;;20.27;14.23;;;3.50;99.90;3.20;97642.00;;;;5086884;28;20475;-82
2022/01/26 12:51:59;;;;;;;23.57;15.30;;;3.50;99.90;3.20;97648.00;;;;5098410;28;20211;-81
2022/01/26 12:54:48;;;;;;;20.43;15.07;;;3.40;99.90;3.40;97641.00;;;;5097730;28;20998;-81
2022/01/26 12:57:44;;;;;;;29.27;15.27;;;3.30;99.90;3.30;97645.00;;;;5098301;28;20203;-81
2022/01/26 13:00:42;;;;;;;25.30;15.43;;;3.40;99.90;3.50;97640.00;;;;5093040;28;20207;-81
2022/01/26 13:03:34;;;;;;;23.10;15.50;;;3.40;99.90;3.40;97650.00;;;;5095099;28;20441;-82
2022/01/26 13:06:27;;;;;;;28.17;17.50;;;3.40;99.90;3.40;97639.00;;;;5098702;27;20429;-82
2022/01/26 13:09:20;;;;;;;30.50;17.70;;;3.40;99.90;3.30;97631.00;;;;5098510;28;20211;-81
2022/01/26 13:12:12;;;;;;;26.00;18.23;;;3.40;99.90;3.40;97633.00;;;;5090498;28;20424;-81
2022/01/26 13:15:08;;;;;;;22.87;17.03;;;3.50;99.90;3.10;97631.00;;;;5096165;28;20477;-81
2022/01/26 13:18:07;;;;;;;27.63;17.90;;;3.40;99.90;2.90;97615.00;;;;5097297;28;20428;-81
2022/01/26 13:21:12;;;;;;;22.27;17.10;;;3.40;99.90;2.90;97620.00;;;;5096429;28;20723;-81
2022/01/26 13:24:11;;;;;;;30.30;19.77;;;3.30;99.90;3.30;97621.00;;;;5098739;28;20463;-81
2022/01/26 13:27:16;;;;;;;36.67;20.13;;;3.30;99.90;3.80;97629.00;;;;5096379;28;20429;-81
2022/01/26 13:30:18;;;;;;;27.90;19.10;;;3.40;99.90;3.60;97618.00;;;;5096629;28;20781;-81
2022/01/26 13:36:26;;;;;;;34.50;21.73;;;3.60;99.90;4.00;97619.00;;;;5087183;28;20206;-81
2022/01/26 13:39:30;;;;;;;29.07;18.37;;;3.70;99.90;4.10;97617.00;;;;5098071;28;20214;-81
2022/01/26 13:48:55;;;;;;;30.30;20.33;;;4.00;99.90;4.20;97630.00;;;;5094266;28;20215;-81
2022/01/26 13:51:58;;;;;;;23.77;17.83;;;4.20;99.90;4.30;97632.00;;;;5088737;28;20207;-81
2022/01/26 13:58:20;;;;;;;29.87;17.77;;;4.20;99.90;4.00;97634.00;;;;5081225;28;20662;-81
2022/01/26 14:01:16;;;;;;;22.90;15.43;;;4.20;99.90;4.10;97627.00;;;;5088691;28;20195;-81
2022/01/26 14:04:06;;;;;;;22.80;16.10;;;4.20;99.90;3.70;97626.00;;;;5083772;28;20260;-81
2022/01/26 14:06:55;;;;;;;26.53;17.50;;;4.10;99.90;4.20;97639.00;;;;5087412;28;20281;-81
2022/01/26 14:09:44;;;;;;;25.07;16.93;;;4.20;99.90;4.30;97642.00;;;;5084893;28;20583;-81
2022/01/26 14:12:38;;;;;;;26.27;17.40;;;4.20;99.90;4.10;97645.00;;;;5087157;28;20603;-81
2022/01/26 14:15:39;;;;;;;32.77;18.57;;;4.20;99.90;3.80;97638.00;;;;5083997;28;20219;-81
2022/01/26 14:18:43;;;;;;;32.70;20.57;;;4.10;99.90;3.80;97632.00;;;;5084966;28;20829;-81